Edgewater, New Jersey
Current Conditions -  °F | °C
As of 11:51 AM on Friday 28 Nov 2014 (Local Time) from KNYC Reporting Station
Broken Clouds Broken Clouds  
Wind Chill: 29°   Ceiling: 4100
Heat Index: 36°   Visibility: 10mi
Dew Point: 18°   Wind: 9mph
Humidity: 48%   Direction: 310°NW
Pressure: 30.18"   Gusts: NA
Location:  40.83°N, 73.97°W
Report Text: KNYC 281651Z AUTO 31008KT 10SM BKN041 02/M08 A3018 RMK AO2 SLP212 T00221078 $
Loading
Personal Weather Stations






























Interactive Weather Map New forecast layout! Learn more

10-Day Weather Forecast

Advertisements
Track Severe Weather on mobile